sensor_id;sensor_type;location;lat;lon;timestamp;pressure;altitude;pressure_sealevel;temperature;humidity
67987;BME280;54767;53.800;15.956;2023-01-06T00:00:26;100753.55;;;5.06;78.45
67987;BME280;54767;53.800;15.956;2023-01-06T00:03:14;100754.38;;;5.05;78.43
67987;BME280;54767;53.800;15.956;2023-01-06T00:05:41;100752.11;;;5.04;78.46
67987;BME280;54767;53.800;15.956;2023-01-06T00:08:08;100754.20;;;5.04;78.25
67987;BME280;54767;53.800;15.956;2023-01-06T00:10:35;100758.13;;;5.03;77.85
67987;BME280;54767;53.800;15.956;2023-01-06T00:13:24;100761.74;;;5.02;78.16
67987;BME280;54767;53.800;15.956;2023-01-06T00:56:15;100757.37;;;4.85;77.31
67987;BME280;54767;53.800;15.956;2023-01-06T00:58:43;100762.29;;;4.87;77.33
67987;BME280;54767;53.800;15.956;2023-01-06T01:01:10;100761.67;;;4.89;77.44
67987;BME280;54767;53.800;15.956;2023-01-06T01:03:38;100760.42;;;4.88;77.62
67987;BME280;54767;53.800;15.956;2023-01-06T01:06:05;100761.65;;;4.89;77.75
67987;BME280;54767;53.800;15.956;2023-01-06T01:08:33;100760.95;;;4.88;77.31
67987;BME280;54767;53.800;15.956;2023-01-06T01:11:07;100766.57;;;4.85;77.25
67987;BME280;54767;53.800;15.956;2023-01-06T01:13:35;100769.12;;;4.83;77.55
67987;BME280;54767;53.800;15.956;2023-01-06T01:16:08;100779.91;;;4.85;77.54
67987;BME280;54767;53.800;15.956;2023-01-06T01:18:35;100784.16;;;4.87;77.75
67987;BME280;54767;53.800;15.956;2023-01-06T01:21:02;100788.23;;;4.90;77.45
67987;BME280;54767;53.800;15.956;2023-01-06T01:23:29;100797.11;;;4.91;77.59
67987;BME280;54767;53.800;15.956;2023-01-06T01:25:56;100797.69;;;4.92;77.58
67987;BME280;54767;53.800;15.956;2023-01-06T01:28:23;100800.05;;;4.91;77.57
67987;BME280;54767;53.800;15.956;2023-01-06T01:30:57;100807.50;;;4.90;77.50
67987;BME280;54767;53.800;15.956;2023-01-06T01:33:24;100809.52;;;4.89;77.60
67987;BME280;54767;53.800;15.956;2023-01-06T01:35:51;100815.58;;;4.89;77.67
67987;BME280;54767;53.800;15.956;2023-01-06T01:38:17;100812.17;;;4.90;77.77
67987;BME280;54767;53.800;15.956;2023-01-06T01:40:48;100814.36;;;4.93;77.57
67987;BME280;54767;53.800;15.956;2023-01-06T01:43:15;100815.23;;;4.93;77.56
67987;BME280;54767;53.800;15.956;2023-01-06T01:45:43;100822.66;;;4.92;77.48
67987;BME280;54767;53.800;15.956;2023-01-06T01:48:15;100827.27;;;4.90;77.54
67987;BME280;54767;53.800;15.956;2023-01-06T01:50:50;100828.81;;;4.90;77.52
67987;BME280;54767;53.800;15.956;2023-01-06T01:53:22;100827.88;;;4.88;77.52
67987;BME280;54767;53.800;15.956;2023-01-06T01:55:51;100825.80;;;4.88;77.55
67987;BME280;54767;53.800;15.956;2023-01-06T01:58:20;100818.00;;;4.88;77.30
67987;BME280;54767;53.800;15.956;2023-01-06T02:00:50;100814.58;;;4.89;77.32
67987;BME280;54767;53.800;15.956;2023-01-06T02:03:17;100817.73;;;4.91;77.46
67987;BME280;54767;53.800;15.956;2023-01-06T02:05:47;100820.75;;;4.92;77.60
67987;BME280;54767;53.800;15.956;2023-01-06T02:08:21;100822.48;;;4.92;77.35
67987;BME280;54767;53.800;15.956;2023-01-06T02:10:49;100819.80;;;4.90;77.02
67987;BME280;54767;53.800;15.956;2023-01-06T02:13:16;100813.75;;;4.86;76.59
67987;BME280;54767;53.800;15.956;2023-01-06T02:15:43;100801.80;;;4.76;76.41
67987;BME280;54767;53.800;15.956;2023-01-06T02:18:19;100799.99;;;4.59;75.87
67987;BME280;54767;53.800;15.956;2023-01-06T02:31:39;100786.94;;;4.14;76.83
67987;BME280;54767;53.800;15.956;2023-01-06T02:37:08;100791.65;;;4.05;77.06
67987;BME280;54767;53.800;15.956;2023-01-06T02:50:21;100789.96;;;3.74;77.24
67987;BME280;54767;53.800;15.956;2023-01-06T02:55:25;100784.00;;;3.68;77.15
67987;BME280;54767;53.800;15.956;2023-01-06T03:00:36;100775.83;;;3.71;77.35
67987;BME280;54767;53.800;15.956;2023-01-06T03:03:09;100774.96;;;3.71;77.03
67987;BME280;54767;53.800;15.956;2023-01-06T03:05:38;100770.90;;;3.65;77.09
67987;BME280;54767;53.800;15.956;2023-01-06T03:08:08;100769.48;;;3.59;77.52
67987;BME280;54767;53.800;15.956;2023-01-06T03:10:38;100766.58;;;3.56;77.06
67987;BME280;54767;53.800;15.956;2023-01-06T03:13:19;100764.65;;;3.51;77.27
67987;BME280;54767;53.800;15.956;2023-01-06T03:15:49;100765.59;;;3.44;76.90
67987;BME280;54767;53.800;15.956;2023-01-06T03:18:16;100765.02;;;3.38;76.88
67987;BME280;54767;53.800;15.956;2023-01-06T03:20:43;100765.23;;;3.34;76.95
67987;BME280;54767;53.800;15.956;2023-01-06T03:23:11;100767.38;;;3.32;76.86
67987;BME280;54767;53.800;15.956;2023-01-06T03:25:38;100766.90;;;3.29;76.96
67987;BME280;54767;53.800;15.956;2023-01-06T03:28:05;100771.31;;;3.26;76.93
67987;BME280;54767;53.800;15.956;2023-01-06T03:30:36;100768.27;;;3.24;77.25
67987;BME280;54767;53.800;15.956;2023-01-06T03:38:13;100770.09;;;3.18;77.10
67987;BME280;54767;53.800;15.956;2023-01-06T03:40:49;100776.23;;;3.15;77.25
67987;BME280;54767;53.800;15.956;2023-01-06T03:56:50;100761.02;;;3.46;77.32
67987;BME280;54767;53.800;15.956;2023-01-06T03:59:21;100766.71;;;3.46;77.84
67987;BME280;54767;53.800;15.956;2023-01-06T04:01:49;100774.01;;;3.47;77.88
67987;BME280;54767;53.800;15.956;2023-01-06T04:04:16;100780.30;;;3.48;77.69
67987;BME280;54767;53.800;15.956;2023-01-06T04:06:44;100785.90;;;3.50;77.73
67987;BME280;54767;53.800;15.956;2023-01-06T04:09:10;100782.09;;;3.54;77.91
67987;BME280;54767;53.800;15.956;2023-01-06T04:11:37;100774.61;;;3.58;77.69
67987;BME280;54767;53.800;15.956;2023-01-06T04:14:22;100776.28;;;3.61;77.29
67987;BME280;54767;53.800;15.956;2023-01-06T04:16:49;100777.70;;;3.61;77.62
67987;BME280;54767;53.800;15.956;2023-01-06T04:19:16;100775.30;;;3.62;77.64
67987;BME280;54767;53.800;15.956;2023-01-06T04:21:43;100770.77;;;3.61;77.59
67987;BME280;54767;53.800;15.956;2023-01-06T04:24:10;100770.36;;;3.59;77.32
67987;BME280;54767;53.800;15.956;2023-01-06T04:26:37;100773.23;;;3.58;77.53
67987;BME280;54767;53.800;15.956;2023-01-06T04:29:04;100777.60;;;3.59;77.47
67987;BME280;54767;53.800;15.956;2023-01-06T04:31:31;100775.65;;;3.62;77.57
67987;BME280;54767;53.800;15.956;2023-01-06T04:34:01;100770.95;;;3.66;77.49
67987;BME280;54767;53.800;15.956;2023-01-06T04:36:29;100764.22;;;3.67;77.37
67987;BME280;54767;53.800;15.956;2023-01-06T04:38:56;100760.08;;;3.67;77.31
67987;BME280;54767;53.800;15.956;2023-01-06T04:41:22;100772.86;;;3.66;77.30
67987;BME280;54767;53.800;15.956;2023-01-06T04:43:49;100770.70;;;3.64;77.48
67987;BME280;54767;53.800;15.956;2023-01-06T04:46:16;100758.20;;;3.63;77.54
67987;BME280;54767;53.800;15.956;2023-01-06T04:48:43;100744.90;;;3.64;77.16
67987;BME280;54767;53.800;15.956;2023-01-06T04:51:10;100742.15;;;3.64;77.02
67987;BME280;54767;53.800;15.956;2023-01-06T04:53:37;100744.88;;;3.63;77.10
67987;BME280;54767;53.800;15.956;2023-01-06T04:56:09;100746.96;;;3.63;77.18
67987;BME280;54767;53.800;15.956;2023-01-06T04:58:37;100745.55;;;3.62;77.23
67987;BME280;54767;53.800;15.956;2023-01-06T05:01:04;100743.92;;;3.60;77.23
67987;BME280;54767;53.800;15.956;2023-01-06T05:03:32;100744.48;;;3.57;77.22
67987;BME280;54767;53.800;15.956;2023-01-06T05:06:01;100747.13;;;3.54;77.17
67987;BME280;54767;53.800;15.956;2023-01-06T05:08:28;100743.09;;;3.52;77.13
67987;BME280;54767;53.800;15.956;2023-01-06T05:11:01;100749.63;;;3.51;77.12
67987;BME280;54767;53.800;15.956;2023-01-06T05:13:30;100744.44;;;3.52;76.91
67987;BME280;54767;53.800;15.956;2023-01-06T05:15:57;100756.23;;;3.52;77.38
67987;BME280;54767;53.800;15.956;2023-01-06T05:18:23;100759.32;;;3.52;77.21
67987;BME280;54767;53.800;15.956;2023-01-06T05:20:51;100755.79;;;3.50;77.12
67987;BME280;54767;53.800;15.956;2023-01-06T05:23:18;100752.29;;;3.49;77.51
67987;BME280;54767;53.800;15.956;2023-01-06T05:25:45;100750.20;;;3.48;77.30
67987;BME280;54767;53.800;15.956;2023-01-06T05:28:12;100744.14;;;3.48;77.45
67987;BME280;54767;53.800;15.956;2023-01-06T05:30:39;100738.10;;;3.49;77.27
67987;BME280;54767;53.800;15.956;2023-01-06T05:33:06;100735.20;;;3.50;77.05
67987;BME280;54767;53.800;15.956;2023-01-06T05:35:33;100733.60;;;3.49;77.05
67987;BME280;54767;53.800;15.956;2023-01-06T05:38:00;100733.92;;;3.48;77.54
67987;BME280;54767;53.800;15.956;2023-01-06T05:40:27;100737.21;;;3.48;77.51
67987;BME280;54767;53.800;15.956;2023-01-06T05:42:54;100734.19;;;3.46;77.29
67987;BME280;54767;53.800;15.956;2023-01-06T05:45:22;100733.56;;;3.44;77.34
67987;BME280;54767;53.800;15.956;2023-01-06T05:47:49;100734.60;;;3.44;77.37
67987;BME280;54767;53.800;15.956;2023-01-06T05:50:16;100730.69;;;3.45;77.19
67987;BME280;54767;53.800;15.956;2023-01-06T05:52:43;100725.39;;;3.47;77.40
67987;BME280;54767;53.800;15.956;2023-01-06T05:55:10;100717.93;;;3.46;77.31
67987;BME280;54767;53.800;15.956;2023-01-06T05:57:37;100716.14;;;3.45;77.46
67987;BME280;54767;53.800;15.956;2023-01-06T06:00:04;100723.88;;;3.44;77.36
67987;BME280;54767;53.800;15.956;2023-01-06T06:02:30;100723.50;;;3.42;77.67
67987;BME280;54767;53.800;15.956;2023-01-06T06:04:57;100723.84;;;3.43;77.53
67987;BME280;54767;53.800;15.956;2023-01-06T06:07:24;100724.21;;;3.44;77.14
67987;BME280;54767;53.800;15.956;2023-01-06T06:09:51;100720.13;;;3.45;77.43
67987;BME280;54767;53.800;15.956;2023-01-06T06:12:18;100717.90;;;3.45;77.35
67987;BME280;54767;53.800;15.956;2023-01-06T06:14:45;100724.48;;;3.45;77.39
67987;BME280;54767;53.800;15.956;2023-01-06T06:17:11;100724.03;;;3.43;77.53
67987;BME280;54767;53.800;15.956;2023-01-06T06:19:38;100723.46;;;3.42;77.38
67987;BME280;54767;53.800;15.956;2023-01-06T06:22:05;100719.52;;;3.42;77.61
67987;BME280;54767;53.800;15.956;2023-01-06T06:24:32;100725.25;;;3.43;77.41
67987;BME280;54767;53.800;15.956;2023-01-06T06:26:59;100732.44;;;3.46;77.33
67987;BME280;54767;53.800;15.956;2023-01-06T06:29:26;100725.63;;;3.48;77.17
67987;BME280;54767;53.800;15.956;2023-01-06T06:31:53;100720.45;;;3.49;77.05
67987;BME280;54767;53.800;15.956;2023-01-06T06:34:20;100719.58;;;3.48;77.28
67987;BME280;54767;53.800;15.956;2023-01-06T06:36:46;100720.88;;;3.46;77.35
67987;BME280;54767;53.800;15.956;2023-01-06T06:39:13;100715.14;;;3.46;77.33
67987;BME280;54767;53.800;15.956;2023-01-06T06:41:40;100710.45;;;3.45;77.23
67987;BME280;54767;53.800;15.956;2023-01-06T06:44:07;100710.65;;;3.46;77.24
67987;BME280;54767;53.800;15.956;2023-01-06T06:46:34;100709.65;;;3.47;77.25
67987;BME280;54767;53.800;15.956;2023-01-06T06:49:01;100706.02;;;3.47;77.28
67987;BME280;54767;53.800;15.956;2023-01-06T06:51:28;100702.86;;;3.46;77.41
67987;BME280;54767;53.800;15.956;2023-01-06T06:53:55;100700.38;;;3.45;77.25
67987;BME280;54767;53.800;15.956;2023-01-06T06:56:23;100699.66;;;3.44;77.40
67987;BME280;54767;53.800;15.956;2023-01-06T06:58:50;100694.88;;;3.40;77.20
67987;BME280;54767;53.800;15.956;2023-01-06T07:01:17;100694.86;;;3.40;77.25
67987;BME280;54767;53.800;15.956;2023-01-06T07:03:45;100694.20;;;3.41;77.06
67987;BME280;54767;53.800;15.956;2023-01-06T07:06:12;100697.38;;;3.43;77.04
67987;BME280;54767;53.800;15.956;2023-01-06T07:08:43;100697.14;;;3.41;76.68
67987;BME280;54767;53.800;15.956;2023-01-06T07:11:10;100699.33;;;3.39;77.05
67987;BME280;54767;53.800;15.956;2023-01-06T07:13:37;100703.20;;;3.36;76.83
67987;BME280;54767;53.800;15.956;2023-01-06T07:16:05;100696.86;;;3.34;77.04
67987;BME280;54767;53.800;15.956;2023-01-06T07:18:32;100691.38;;;3.30;76.74
67987;BME280;54767;53.800;15.956;2023-01-06T07:20:59;100698.28;;;3.30;76.84
67987;BME280;54767;53.800;15.956;2023-01-06T07:23:26;100699.13;;;3.30;76.86
67987;BME280;54767;53.800;15.956;2023-01-06T07:25:53;100691.04;;;3.30;77.12
67987;BME280;54767;53.800;15.956;2023-01-06T07:28:20;100690.53;;;3.31;76.92
67987;BME280;54767;53.800;15.956;2023-01-06T07:30:47;100690.72;;;3.31;76.87
67987;BME280;54767;53.800;15.956;2023-01-06T07:33:14;100684.92;;;3.29;77.03
67987;BME280;54767;53.800;15.956;2023-01-06T07:35:41;100677.23;;;3.27;77.02
67987;BME280;54767;53.800;15.956;2023-01-06T07:38:08;100676.98;;;3.25;76.79
67987;BME280;54767;53.800;15.956;2023-01-06T07:40:35;100681.11;;;3.24;77.08
67987;BME280;54767;53.800;15.956;2023-01-06T07:43:03;100681.22;;;3.23;77.05
67987;BME280;54767;53.800;15.956;2023-01-06T07:45:31;100680.20;;;3.23;76.78
67987;BME280;54767;53.800;15.956;2023-01-06T07:47:57;100678.09;;;3.22;76.85
67987;BME280;54767;53.800;15.956;2023-01-06T07:50:24;100675.50;;;3.22;76.90
67987;BME280;54767;53.800;15.956;2023-01-06T07:52:52;100670.63;;;3.21;77.08
67987;BME280;54767;53.800;15.956;2023-01-06T07:55:19;100671.48;;;3.22;77.06
67987;BME280;54767;53.800;15.956;2023-01-06T07:57:46;100661.38;;;3.20;77.16
67987;BME280;54767;53.800;15.956;2023-01-06T08:00:13;100655.50;;;3.20;77.14
67987;BME280;54767;53.800;15.956;2023-01-06T08:02:40;100647.70;;;3.19;76.94
67987;BME280;54767;53.800;15.956;2023-01-06T08:05:08;100648.73;;;3.19;76.98
67987;BME280;54767;53.800;15.956;2023-01-06T08:07:35;100647.61;;;3.21;76.94
67987;BME280;54767;53.800;15.956;2023-01-06T08:10:02;100650.27;;;3.23;76.98
67987;BME280;54767;53.800;15.956;2023-01-06T08:12:28;100650.23;;;3.22;77.02
67987;BME280;54767;53.800;15.956;2023-01-06T08:14:55;100646.33;;;3.19;76.74
67987;BME280;54767;53.800;15.956;2023-01-06T08:17:22;100644.89;;;3.18;77.09
67987;BME280;54767;53.800;15.956;2023-01-06T08:19:49;100643.37;;;3.19;76.85
67987;BME280;54767;53.800;15.956;2023-01-06T08:22:16;100634.74;;;3.20;77.15
67987;BME280;54767;53.800;15.956;2023-01-06T08:24:42;100629.64;;;3.21;76.81
67987;BME280;54767;53.800;15.956;2023-01-06T08:27:09;100623.23;;;3.22;76.88
67987;BME280;54767;53.800;15.956;2023-01-06T08:29:36;100618.15;;;3.20;76.79
67987;BME280;54767;53.800;15.956;2023-01-06T08:32:03;100611.48;;;3.17;76.87
67987;BME280;54767;53.800;15.956;2023-01-06T08:34:37;100604.95;;;3.13;76.78
67987;BME280;54767;53.800;15.956;2023-01-06T08:37:04;100603.11;;;3.11;76.81
67987;BME280;54767;53.800;15.956;2023-01-06T08:39:31;100611.85;;;3.09;76.72
67987;BME280;54767;53.800;15.956;2023-01-06T08:41:58;100610.45;;;3.08;76.90
67987;BME280;54767;53.800;15.956;2023-01-06T08:44:25;100609.06;;;3.08;76.77
67987;BME280;54767;53.800;15.956;2023-01-06T08:46:51;100600.73;;;3.07;77.02
67987;BME280;54767;53.800;15.956;2023-01-06T08:49:18;100596.42;;;3.08;76.87
67987;BME280;54767;53.800;15.956;2023-01-06T08:51:45;100600.02;;;3.07;76.96
67987;BME280;54767;53.800;15.956;2023-01-06T08:54:12;100599.17;;;3.07;77.10
67987;BME280;54767;53.800;15.956;2023-01-06T08:56:40;100596.55;;;3.06;77.09
67987;BME280;54767;53.800;15.956;2023-01-06T08:59:10;100599.67;;;3.07;76.98
67987;BME280;54767;53.800;15.956;2023-01-06T09:01:38;100595.75;;;3.08;77.06
67987;BME280;54767;53.800;15.956;2023-01-06T09:04:05;100588.61;;;3.11;77.11
67987;BME280;54767;53.800;15.956;2023-01-06T09:06:32;100585.93;;;3.14;77.12
67987;BME280;54767;53.800;15.956;2023-01-06T09:08:59;100583.05;;;3.15;77.03
67987;BME280;54767;53.800;15.956;2023-01-06T09:11:27;100581.17;;;3.16;77.04
67987;BME280;54767;53.800;15.956;2023-01-06T09:13:54;100585.27;;;3.15;77.08
67987;BME280;54767;53.800;15.956;2023-01-06T09:16:21;100575.75;;;3.14;76.88
67987;BME280;54767;53.800;15.956;2023-01-06T09:18:48;100567.77;;;3.13;77.11
67987;BME280;54767;53.800;15.956;2023-01-06T09:21:19;100560.00;;;3.14;76.98
67987;BME280;54767;53.800;15.956;2023-01-06T09:23:47;100555.35;;;3.14;76.91
67987;BME280;54767;53.800;15.956;2023-01-06T09:26:14;100553.41;;;3.13;76.99
67987;BME280;54767;53.800;15.956;2023-01-06T09:28:41;100553.58;;;3.13;76.65
67987;BME280;54767;53.800;15.956;2023-01-06T09:31:08;100554.13;;;3.14;77.05
67987;BME280;54767;53.800;15.956;2023-01-06T09:33:35;100553.63;;;3.15;76.90
67987;BME280;54767;53.800;15.956;2023-01-06T09:36:02;100551.52;;;3.14;77.03
67987;BME280;54767;53.800;15.956;2023-01-06T09:38:29;100552.02;;;3.14;77.20
67987;BME280;54767;53.800;15.956;2023-01-06T09:46:05;100545.20;;;3.20;77.36
67987;BME280;54767;53.800;15.956;2023-01-06T09:48:37;100541.70;;;3.25;77.23
67987;BME280;54767;53.800;15.956;2023-01-06T09:51:05;100530.66;;;3.30;77.07
67987;BME280;54767;53.800;15.956;2023-01-06T09:53:33;100527.04;;;3.30;76.88
67987;BME280;54767;53.800;15.956;2023-01-06T09:56:02;100517.10;;;3.28;76.84
67987;BME280;54767;53.800;15.956;2023-01-06T09:58:31;100509.60;;;3.26;76.89
67987;BME280;54767;53.800;15.956;2023-01-06T10:01:01;100498.79;;;3.24;76.80
67987;BME280;54767;53.800;15.956;2023-01-06T10:03:31;100494.71;;;3.21;76.85
67987;BME280;54767;53.800;15.956;2023-01-06T10:11:17;100475.23;;;3.18;76.63
67987;BME280;54767;53.800;15.956;2023-01-06T10:13:57;100470.05;;;3.13;76.62
67987;BME280;54767;53.800;15.956;2023-01-06T10:23:56;100433.22;;;2.99;76.81
67987;BME280;54767;53.800;15.956;2023-01-06T10:26:36;100420.85;;;2.96;76.81
67987;BME280;54767;53.800;15.956;2023-01-06T10:29:19;100409.70;;;2.93;76.85
67987;BME280;54767;53.800;15.956;2023-01-06T10:31:46;100398.20;;;2.91;76.77
67987;BME280;54767;53.800;15.956;2023-01-06T10:36:49;100383.16;;;2.86;76.85
67987;BME280;54767;53.800;15.956;2023-01-06T10:39:19;100374.75;;;2.83;76.90
67987;BME280;54767;53.800;15.956;2023-01-06T10:44:13;100361.88;;;2.75;77.13
67987;BME280;54767;53.800;15.956;2023-01-06T10:46:40;100355.27;;;2.74;77.15
67987;BME280;54767;53.800;15.956;2023-01-06T10:49:08;100343.63;;;2.72;77.13
67987;BME280;54767;53.800;15.956;2023-01-06T10:51:39;100334.61;;;2.72;77.27
67987;BME280;54767;53.800;15.956;2023-01-06T10:54:09;100322.67;;;2.71;77.20
67987;BME280;54767;53.800;15.956;2023-01-06T10:56:39;100313.14;;;2.70;77.53
67987;BME280;54767;53.800;15.956;2023-01-06T10:59:09;100313.61;;;2.69;77.22
67987;BME280;54767;53.800;15.956;2023-01-06T11:01:47;100309.96;;;2.68;77.46
67987;BME280;54767;53.800;15.956;2023-01-06T11:04:14;100309.29;;;2.69;77.40
67987;BME280;54767;53.800;15.956;2023-01-06T11:07:04;100303.64;;;2.70;77.55
67987;BME280;54767;53.800;15.956;2023-01-06T11:09:36;100297.27;;;2.71;77.49
67987;BME280;54767;53.800;15.956;2023-01-06T11:12:17;100297.26;;;2.70;77.57
67987;BME280;54767;53.800;15.956;2023-01-06T11:14:55;100289.11;;;2.70;77.78
67987;BME280;54767;53.800;15.956;2023-01-06T11:17:23;100287.70;;;2.69;77.65
67987;BME280;54767;53.800;15.956;2023-01-06T11:20:04;100278.42;;;2.71;77.89
67987;BME280;54767;53.800;15.956;2023-01-06T11:22:33;100272.11;;;2.73;77.70
67987;BME280;54767;53.800;15.956;2023-01-06T11:25:00;100272.70;;;2.76;77.80
67987;BME280;54767;53.800;15.956;2023-01-06T11:27:27;100271.94;;;2.78;77.92
67987;BME280;54767;53.800;15.956;2023-01-06T11:29:54;100260.20;;;2.79;77.98
67987;BME280;54767;53.800;15.956;2023-01-06T11:32:22;100258.00;;;2.80;78.06
67987;BME280;54767;53.800;15.956;2023-01-06T11:34:57;100252.85;;;2.81;78.01
67987;BME280;54767;53.800;15.956;2023-01-06T11:37:29;100246.30;;;2.82;77.88
67987;BME280;54767;53.800;15.956;2023-01-06T11:39:56;100232.35;;;2.83;78.01
67987;BME280;54767;53.800;15.956;2023-01-06T11:42:37;100232.08;;;2.86;77.80
67987;BME280;54767;53.800;15.956;2023-01-06T11:45:26;100227.80;;;2.87;78.08
67987;BME280;54767;53.800;15.956;2023-01-06T11:47:52;100219.02;;;2.87;78.08
67987;BME280;54767;53.800;15.956;2023-01-06T11:50:18;100207.79;;;2.88;77.94
67987;BME280;54767;53.800;15.956;2023-01-06T11:52:56;100198.45;;;2.87;78.03
67987;BME280;54767;53.800;15.956;2023-01-06T11:55:23;100192.58;;;2.88;78.18
67987;BME280;54767;53.800;15.956;2023-01-06T12:00:43;100183.16;;;2.91;77.89
67987;BME280;54767;53.800;15.956;2023-01-06T12:05:50;100168.21;;;2.93;78.13
67987;BME280;54767;53.800;15.956;2023-01-06T12:10:58;100161.59;;;2.92;77.92
67987;BME280;54767;53.800;15.956;2023-01-06T12:13:27;100162.96;;;2.92;78.04
67987;BME280;54767;53.800;15.956;2023-01-06T12:18:49;100160.13;;;2.95;78.08
67987;BME280;54767;53.800;15.956;2023-01-06T12:21:25;100158.27;;;2.97;78.17
67987;BME280;54767;53.800;15.956;2023-01-06T12:23:53;100157.94;;;2.97;77.99
67987;BME280;54767;53.800;15.956;2023-01-06T12:26:21;100159.11;;;2.96;78.18
67987;BME280;54767;53.800;15.956;2023-01-06T12:28:51;100160.13;;;2.95;78.13
67987;BME280;54767;53.800;15.956;2023-01-06T12:31:22;100167.87;;;2.94;78.36
67987;BME280;54767;53.800;15.956;2023-01-06T12:34:00;100165.44;;;2.93;78.25
67987;BME280;54767;53.800;15.956;2023-01-06T12:39:21;100176.10;;;2.97;78.43
67987;BME280;54767;53.800;15.956;2023-01-06T12:41:50;100180.13;;;2.99;78.21
67987;BME280;54767;53.800;15.956;2023-01-06T12:44:42;100176.65;;;3.04;78.37
67987;BME280;54767;53.800;15.956;2023-01-06T12:50:57;100163.53;;;3.10;78.44
67987;BME280;54767;53.800;15.956;2023-01-06T12:52:53;100164.00;;;3.08;78.24
67987;BME280;54767;53.800;15.956;2023-01-06T12:55:28;100157.08;;;3.08;78.45
67987;BME280;54767;53.800;15.956;2023-01-06T12:58:01;100145.67;;;3.08;78.52
67987;BME280;54767;53.800;15.956;2023-01-06T13:00:50;100137.05;;;3.09;78.23
67987;BME280;54767;53.800;15.956;2023-01-06T13:13:58;100120.75;;;3.07;78.63
67987;BME280;54767;53.800;15.956;2023-01-06T13:20:42;100105.77;;;3.04;78.30
67987;BME280;54767;53.800;15.956;2023-01-06T13:36:43;100088.41;;;3.13;79.00
67987;BME280;54767;53.800;15.956;2023-01-06T13:41:42;100079.29;;;3.20;78.80
67987;BME280;54767;53.800;15.956;2023-01-06T13:44:18;100077.11;;;3.23;78.83
67987;BME280;54767;53.800;15.956;2023-01-06T13:46:46;100074.84;;;3.22;78.78
67987;BME280;54767;53.800;15.956;2023-01-06T13:49:15;100069.83;;;3.22;78.79
67987;BME280;54767;53.800;15.956;2023-01-06T13:51:42;100060.33;;;3.22;78.99
67987;BME280;54767;53.800;15.956;2023-01-06T13:59:50;100056.18;;;3.29;78.86
67987;BME280;54767;53.800;15.956;2023-01-06T14:05:04;100039.83;;;3.31;79.12
67987;BME280;54767;53.800;15.956;2023-01-06T14:07:37;100038.27;;;3.31;78.79
67987;BME280;54767;53.800;15.956;2023-01-06T14:10:06;100036.52;;;3.30;79.08
67987;BME280;54767;53.800;15.956;2023-01-06T14:12:48;100034.98;;;3.31;79.11
67987;BME280;54767;53.800;15.956;2023-01-06T14:15:24;100032.10;;;3.33;79.09
67987;BME280;54767;53.800;15.956;2023-01-06T14:17:52;100030.59;;;3.35;78.83
67987;BME280;54767;53.800;15.956;2023-01-06T14:20:22;100028.89;;;3.36;79.48
67987;BME280;54767;53.800;15.956;2023-01-06T14:25:24;100035.56;;;3.39;79.36
67987;BME280;54767;53.800;15.956;2023-01-06T14:35:17;100044.20;;;3.53;79.22
67987;BME280;54767;53.800;15.956;2023-01-06T14:37:46;100042.36;;;3.54;79.34
67987;BME280;54767;53.800;15.956;2023-01-06T14:40:22;100036.48;;;3.54;79.43
67987;BME280;54767;53.800;15.956;2023-01-06T14:42:50;100039.96;;;3.55;79.39
67987;BME280;54767;53.800;15.956;2023-01-06T14:45:27;100046.41;;;3.56;78.93
67987;BME280;54767;53.800;15.956;2023-01-06T14:48:03;100043.52;;;3.59;79.22
67987;BME280;54767;53.800;15.956;2023-01-06T14:50:31;100044.28;;;3.61;79.37
67987;BME280;54767;53.800;15.956;2023-01-06T14:53:14;100046.80;;;3.65;79.35
67987;BME280;54767;53.800;15.956;2023-01-06T14:55:46;100043.20;;;3.67;79.28
67987;BME280;54767;53.800;15.956;2023-01-06T15:01:20;100028.73;;;3.69;79.49
67987;BME280;54767;53.800;15.956;2023-01-06T15:03:55;100030.36;;;3.72;79.70
67987;BME280;54767;53.800;15.956;2023-01-06T15:06:23;100028.88;;;3.75;79.29
67987;BME280;54767;53.800;15.956;2023-01-06T15:08:50;100028.59;;;3.77;79.60
67987;BME280;54767;53.800;15.956;2023-01-06T15:13:47;100029.53;;;3.79;79.56
67987;BME280;54767;53.800;15.956;2023-01-06T15:16:21;100032.50;;;3.80;79.71
67987;BME280;54767;53.800;15.956;2023-01-06T15:18:50;100036.00;;;3.82;79.88
67987;BME280;54767;53.800;15.956;2023-01-06T15:21:20;100035.69;;;3.83;79.72
67987;BME280;54767;53.800;15.956;2023-01-06T15:23:48;100038.36;;;3.87;79.92
67987;BME280;54767;53.800;15.956;2023-01-06T15:26:17;100040.48;;;3.88;80.03
67987;BME280;54767;53.800;15.956;2023-01-06T15:28:54;100041.55;;;3.90;80.12
67987;BME280;54767;53.800;15.956;2023-01-06T15:31:22;100050.09;;;3.91;80.14
67987;BME280;54767;53.800;15.956;2023-01-06T15:33:48;100055.49;;;3.93;80.01
67987;BME280;54767;53.800;15.956;2023-01-06T15:36:18;100067.01;;;3.96;80.15
67987;BME280;54767;53.800;15.956;2023-01-06T15:38:46;100071.08;;;4.00;80.22
67987;BME280;54767;53.800;15.956;2023-01-06T15:41:15;100070.09;;;4.02;80.33
67987;BME280;54767;53.800;15.956;2023-01-06T15:44:02;100067.33;;;4.02;80.23
67987;BME280;54767;53.800;15.956;2023-01-06T15:46:39;100064.26;;;4.04;80.34
67987;BME280;54767;53.800;15.956;2023-01-06T15:49:13;100074.13;;;4.04;80.51
67987;BME280;54767;53.800;15.956;2023-01-06T15:51:48;100076.44;;;4.06;80.41
67987;BME280;54767;53.800;15.956;2023-01-06T15:54:17;100073.79;;;4.11;80.50
67987;BME280;54767;53.800;15.956;2023-01-06T15:56:44;100078.91;;;4.15;80.70
67987;BME280;54767;53.800;15.956;2023-01-06T15:59:12;100072.74;;;4.18;80.90
67987;BME280;54767;53.800;15.956;2023-01-06T16:01:49;100074.53;;;4.20;80.57
67987;BME280;54767;53.800;15.956;2023-01-06T16:04:19;100074.92;;;4.22;80.67